Tiempo atmosférico en la estación meteorológica de Alicante/Alacant Aeropuerto, Alacant/Alicante (43 m.)



Fecha
DESCASC
Temp. máxima en grados centígrados (hora)
DESCASC
Temp. mínima en grados centígrados (hora)
DESCASC
Temp. media en grados centígrados
DESCASC
Racha de viento máxima en m/sg (hora)
DESCASC
Velocidad máxima media en intervalos de 10 minutos(hora)
DESCASC
Precipitaciones diarias en mm
DESCASC
Precipitaciones de 00:00 a 06:00 en mm
DESCASC
Precipitaciones de 06:00 a 12:00 en mm
DESCASC
Precipitaciones de 12:00 a 18:00 en mm
DESCASC
Precipitaciones de 18:00 a 24:00 en mm
DESCASC

Gráficas

Temp. máximas Temp. mínimas Temp. medias Precipitaciones Rachas de viento máximas Velocidades máximas media en intervalos de 10 minutos

Datos horarios

Fecha y hora oficial Temperatura (ºC) Velocidad del viento (km/h) Dirección del viento Racha (km/h) Dirección de racha Precipitación (mm) Presión (hPa) Tendencia (hPa) Humedad (%)
2018-01-22 23:00:00 18.6 23 Noroeste 32 Noroeste 0 1020.1 0.4 33
2018-01-22 22:00:00 19.3 12 Noroeste 30 Oeste 0 1019.8 0.7 30
2018-01-22 21:00:00 16.6 8 Oeste 9 Sudoeste 0 1019.7 0.9 44
2018-01-22 20:00:00 15.1 3 Sur 8 Sur 0 1019.7 1.1 61
2018-01-22 19:00:00 16.8 5 Sudeste 11 Este 0 1019.1 -- 55
2018-01-22 18:00:00 18.6 9 Este 17 Este 0 1018.8 0.2 51
2018-01-22 17:00:00 20.7 8 Este 21 Este 0 1018.6 -0.2 39
2018-01-22 16:00:00 20.8 16 Este 28 Noroeste 0 -- -- 41
2018-01-22 15:00:00 25.2 23 Noroeste 45 Noroeste 0 1018.6 -2.3 26
2018-01-22 14:00:00 24.2 30 Oeste 46 Oeste 0 1018.8 -2.5 28
2018-01-22 13:00:00 22.4 33 Oeste 45 Oeste 0 1019.7 -1.3 32
2018-01-22 12:00:00 21.4 26 Oeste 45 Oeste 0 1020.9 0.2 36
2018-01-22 11:00:00 19.8 30 Oeste 46 Noroeste 0 1021.3 0.8 40
2018-01-22 10:00:00 18.3 27 Oeste 41 Oeste 0 1021 0.6 44
2018-01-22 09:00:00 15.9 21 Oeste 35 Oeste 0 1020.7 0.4 52
2018-01-22 08:00:00 15.5 24 Oeste 35 Oeste 0 1020.5 0.2 53
2018-01-22 07:00:00 16.1 20 Oeste 32 Oeste 0 1020.4 -0.4 51
2018-01-22 06:00:00 16.5 14 Oeste 41 Oeste 0 1020.3 -0.8 49
2018-01-22 05:00:00 15.7 26 Oeste 37 Oeste 0 1020.3 -1 54
2018-01-22 04:00:00 16.1 26 Oeste 37 Oeste 0 1020.8 -1 52
2018-01-22 03:00:00 16.8 24 Oeste 35 Noroeste 0 1021.1 -0.6 50
2018-01-22 02:00:00 17.5 26 Noroeste 41 Noroeste 0 1021.3 -0.1 48
2018-01-22 01:00:00 17.3 16 Oeste 26 Oeste 0 1021.8 -- 50
2018-01-22 00:00:00 17.7 15 Oeste 30 Noroeste 0 1021.7 0.8 49
2018-01-21 23:00:00 18.2 22 Noroeste 33 Noroeste 0 1021.4 -- 47
2018-01-21 22:00:00 19 22 Noroeste 37 Oeste 0 -- -- --
2018-01-21 21:00:00 19.3 25 Noroeste 35 Oeste 0 1020.9 1.3 44
2018-01-21 20:00:00 19.2 14 Oeste 26 Oeste 0 -- -- 44
2018-01-21 19:00:00 20.1 10 Noroeste 15 Norte 0 1020 1.3 40
2018-01-21 18:00:00 22 7 Nordeste 33 Oeste 0 1019.6 1.1 35
2018-01-21 17:00:00 23.7 20 Noroeste 35 Oeste 0 1019.1 0.2 31
2018-01-21 16:00:00 24.2 27 Oeste 37 Oeste 0 1018.7 -1 29
2018-01-21 15:00:00 24.2 27 Oeste 37 Oeste 0 1018.5 -1.6 29
2018-01-21 14:00:00 23.7 26 Oeste 45 Noroeste 0 1018.9 -1.1 29
2018-01-21 13:00:00 21.8 31 Noroeste 45 Noroeste 0 1019.7 -- 33
2018-01-21 12:00:00 20.5 30 Noroeste 58 Noroeste 0 1020.1 -- 35
2018-01-21 11:00:00 18.1 35 Noroeste 55 Oeste 0 1020 0.7 40
2018-01-21 10:00:00 16.2 36 Noroeste 58 Oeste 0 -- -- 44
2018-01-21 09:00:00 15.2 40 Oeste 58 Oeste 0 -- -- --
2018-01-21 08:00:00 15.4 44 Oeste 65 Oeste 0 1019.3 -- 45
2018-01-21 07:00:00 15.4 47 Oeste 63 Oeste 0 1018.8 -1.6 44
2018-01-21 06:00:00 14.8 28 Oeste 45 Oeste 0 -- -- 46
2018-01-21 05:00:00 14.9 16 Sudoeste 32 Sudoeste 0 -- -- 42
2018-01-21 04:00:00 15.8 22 Oeste 37 Oeste 0 1020.4 0.6 39
2018-01-21 03:00:00 16.4 40 Oeste 71 Oeste 0 1019.8 -0.1 37
2018-01-21 02:00:00 16.1 23 Oeste 52 Noroeste 0 1019.5 -0.6 37
2018-01-21 01:00:00 16.7 40 Oeste 67 Oeste 0 1019.8 -0.2 35
2018-01-21 00:00:00 17.4 49 Oeste 71 Oeste 0 1019.9 0.1 33
2018-01-20 23:00:00 17 24 Noroeste 39 Noroeste 0 1020.1 0.4 33
2018-01-20 22:00:00 16.4 21 Oeste 41 Noroeste 0 1020 1 29
2018-01-20 21:00:00 18.7 28 Oeste 48 Noroeste 0 1019.8 1 24
2018-01-20 20:00:00 14.4 10 Noroeste 32 Sudoeste 0 1019.7 0.8 44
2018-01-20 19:00:00 16.2 17 Oeste 22 Oeste 0 1019 0.4 35
2018-01-20 18:00:00 19.9 11 Sudoeste 26 Oeste 0 1018.8 -0.2 23
2018-01-20 17:00:00 20.7 14 Oeste 33 Oeste 0 1018.9 -1.3 23
2018-01-20 16:00:00 21.2 20 Oeste 39 Noroeste 0 1018.6 -2.4 24
2018-01-20 15:00:00 20.6 26 Oeste 45 Oeste 0 1019 -2.5 26
2018-01-20 14:00:00 19.7 21 Oeste 41 Oeste 0 1020.2 -2.2 29
2018-01-20 13:00:00 18 23 Oeste 45 Noroeste 0 1021 -0.9 36
2018-01-20 12:00:00 17 24 Oeste 41 Oeste 0 1021.5 0.2 39
2018-01-20 11:00:00 15.6 22 Oeste 33 Noroeste 0 1022.4 1.4 41
2018-01-20 10:00:00 14 9 Oeste 17 Oeste 0 1021.9 2 44
2018-01-20 09:00:00 10.2 15 Oeste 21 Oeste 0 1021.3 2 58
2018-01-20 08:00:00 8.8 11 Oeste 17 Oeste 0 1021 1.9 61
2018-01-20 07:00:00 8.7 7 Noroeste 15 Oeste 0 1019.9 0.6 63
2018-01-20 06:00:00 10.9 11 Oeste 15 Oeste 0 1019.3 0 56
2018-01-20 05:00:00 10.4 9 Oeste 13 Oeste 0 1019.1 0.2 59
2018-01-20 04:00:00 11.5 9 Oeste 21 Noroeste 0 1019.3 0.5 55
2018-01-20 03:00:00 10.6 4 Norte 11 Noroeste 0 1019.3 0.6 59
2018-01-20 02:00:00 9.2 6 Noroeste 15 Noroeste 0 1018.9 0.6 65
2018-01-20 01:00:00 11.9 5 Oeste 8 Oeste 0 1018.8 0.9 54
2018-01-20 00:00:00 7.7 5 Noroeste 9 Oeste 0 1018.7 1.1 76
2018-01-19 23:00:00 7.7 0 Calma 11 Oeste 0 1018.3 1.3 76
2018-01-19 22:00:00 8.3 8 Sudoeste 11 Sudoeste 0 1017.9 1.8 78
2018-01-19 21:00:00 10.2 3 Oeste 13 Oeste 0 1017.6 1.8 73
2018-01-19 20:00:00 12.2 9 Oeste 13 Oeste 0 1017 1.8 70
2018-01-19 19:00:00 11.8 10 Sudoeste 15 Sudoeste 0 1016.1 0.9 77
2018-01-19 18:00:00 14.9 11 Sudoeste 15 Sudoeste 0 1015.8 0.6 62
2018-01-19 17:00:00 16.1 12 Sudoeste 15 Sudoeste 0 1015.2 -0.4 61
2018-01-19 16:00:00 17.8 8 Sur 13 Oeste 0 1015.2 -0.9 45
2018-01-19 15:00:00 16.8 7 Oeste 17 Noroeste 0 1015.2 -2 45
2018-01-19 14:00:00 15.9 10 Oeste 17 Noroeste 0 1015.6 -1.8 53
2018-01-19 13:00:00 15.4 6 Sudoeste 15 Oeste 0 1016.1 -1 62
2018-01-19 12:00:00 14.6 10 Noroeste 18 Noroeste 0 1017.2 0.8 70
2018-01-19 11:00:00 13.4 10 Noroeste 15 Noroeste 0 1017.4 2.1 66
2018-01-19 10:00:00 10.8 11 Oeste 15 Oeste 0 1017.1 2.4 73
2018-01-19 09:00:00 9.6 10 Sudoeste 13 Oeste 0 1016.4 2.2 78
2018-01-19 08:00:00 9.7 7 Oeste 9 Oeste 0 1015.3 0.3 80
2018-01-19 07:00:00 9.9 6 Oeste 17 Norte 0 1014.7 -0.5 81
2018-01-19 06:00:00 10.8 15 Norte 21 Norte 0 1014.2 -0.8 79
2018-01-19 05:00:00 11.2 12 Noroeste 17 Norte 0 1015 -0.8 74
2018-01-19 04:00:00 10.6 11 Oeste 15 Oeste 0 1015.2 -1.6 79
2018-01-19 03:00:00 11.1 9 Oeste 21 Noroeste 0 1015 -2.2 81
2018-01-19 02:00:00 11.2 16 Noroeste 21 Noroeste 0 1015.8 -1.4 82
2018-01-19 01:00:00 10.6 9 Noroeste 13 Noroeste 0 1016.8 -0.4 84
2018-01-19 00:00:00 11.3 11 Noroeste 15 Noroeste 0 1017.2 -0.9 81
2018-01-18 23:00:00 10.9 6 Oeste 8 Noroeste 0 1017.2 -1.1 84
2018-01-18 22:00:00 11.4 0 Calma 18 Norte 0 1017.2 -1.1 83
2018-01-18 21:00:00 10.9 9 Noroeste 11 Noroeste 0 1018.1 -0.6 87
2018-01-18 20:00:00 11.9 0 Calma 13 Este 0 1018.3 -0.7 85
2018-01-18 19:00:00 12.3 9 Nordeste 15 Nordeste 0 1018.3 -0.4 84
2018-01-18 18:00:00 13.4 10 Nordeste 15 Nordeste 0 1018.7 0 81
2018-01-18 17:00:00 14.8 11 Este 22 Este 0 1019 -0.5 75
2018-01-18 16:00:00 15.5 16 Este 28 Este 0 1018.7 -2.1 65
2018-01-18 15:00:00 16.3 18 Este 28 Este 0 1018.7 -3.2 61
2018-01-18 14:00:00 16.5 16 Este 24 Este 0 1019.5 -2.7 58
2018-01-18 13:00:00 16.5 15 Este 26 Este 0 1020.8 -1.5 54
2018-01-18 12:00:00 16.6 13 Nordeste 22 Nordeste 0 1021.9 0.1 48
2018-01-18 11:00:00 16 10 Nordeste 15 Nordeste 0 1022.2 0.8 45
2018-01-18 10:00:00 12.2 0 Calma 5 Oeste 0 1022.3 0.8 65
2018-01-18 09:00:00 9.2 5 Oeste 24 Noroeste 0 1021.8 0.4 80
2018-01-18 08:00:00 9.6 17 Noroeste 22 Noroeste 0 1021.4 -0.2 79
2018-01-18 07:00:00 8.9 11 Norte 17 Norte 0 1021.5 -0.5 83
2018-01-18 06:00:00 9.1 9 Norte 15 Norte 0 1021.4 -0.5 86
2018-01-18 05:00:00 11.3 9 Norte 13 Nordeste 0 1021.6 -0.4 80
2018-01-18 04:00:00 11.5 10 Norte 18 Norte 0 1022 -0.2 81
2018-01-18 03:00:00 12.3 11 Norte 21 Norte 0 1021.9 -0.3 78
2018-01-18 02:00:00 12.3 12 Norte 18 Norte 0 1022 0.2 72
2018-01-18 01:00:00 12.6 12 Norte 17 Norte 0 1022.2 0.7 68
2018-01-18 00:00:00 12.9 12 Norte 22 Norte 0 1022.2 1.2 68
2018-01-17 23:00:00 12 13 Norte 17 Norte 0 1021.8 1.4 67
2018-01-17 22:00:00 10.4 4 Norte 9 Norte 0 1021.5 1.8 72
2018-01-17 21:00:00 12 3 Noroeste 9 Noroeste 0 1021 2.1 65
2018-01-17 20:00:00 13.3 5 Noroeste 9 Nordeste 0 1020.4 2.1 62
2018-01-17 19:00:00 14.8 4 Nordeste 13 Nordeste 0 1019.7 2 58
2018-01-17 18:00:00 16.4 7 Nordeste 15 Este 0 1018.9 2.1 52
2018-01-17 17:00:00 18.2 12 Este 24 Este 0 1018.3 1 46
2018-01-17 16:00:00 20.2 17 Este 24 Este 0 1017.7 -0.3 32
2018-01-17 15:00:00 22.1 4 Nordeste 22 Oeste 0 1016.8 -1.8 29
2018-01-17 14:00:00 21.3 14 Oeste 33 Noroeste 0 1017.3 -1.4 32
2018-01-17 13:00:00 19.8 24 Oeste 32 Noroeste 0 1018 0 35
2018-01-17 12:00:00 18.4 20 Oeste 37 Noroeste 0 1018.6 1.1 40
2018-01-17 11:00:00 15.9 26 Oeste 48 Oeste 0 1018.7 1 48
2018-01-17 10:00:00 14.4 32 Oeste 46 Oeste 0 1018 1 53
2018-01-17 09:00:00 13 28 Oeste 48 Oeste 0 1017.5 0.1 59
2018-01-17 08:00:00 13.2 18 Oeste 46 Oeste 0 1017.7 0.2 58
2018-01-17 07:00:00 13.1 34 Oeste 42 Oeste 0 1017 -0.7 61
2018-01-17 06:00:00 13.7 23 Oeste 33 Oeste 0 1017.4 -0.2 59
2018-01-17 05:00:00 13.9 17 Oeste 39 Oeste 0 1017.5 -0.3 58
2018-01-17 04:00:00 14.4 23 Oeste 41 Oeste 0 1017.7 -0.5 55
2018-01-17 03:00:00 14.7 24 Oeste 45 Oeste 0 1017.6 -1.2 54
2018-01-17 02:00:00 15.4 36 Oeste 45 Oeste 0 1017.8 -1.1 52
2018-01-17 01:00:00 15.9 26 Oeste 45 Oeste 0 1018.2 -- 49
2018-01-17 00:00:00 15.6 24 Oeste 48 Oeste 0 1018.8 -0.5 50
2018-01-16 23:00:00 16.2 29 Oeste 48 Oeste 0 1018.9 -0.3 48
2018-01-16 22:00:00 16.7 33 Oeste 61 Oeste 0 -- -- --
2018-01-16 21:00:00 17.2 19 Oeste 54 Oeste 0 1019.3 0.5 44
2018-01-16 20:00:00 17.6 33 Oeste 45 Oeste 0 1019.2 0.1 44
2018-01-16 19:00:00 17.9 20 Oeste 35 Oeste 0 1019.2 -0.2 44
2018-01-16 18:00:00 18.9 23 Oeste 33 Oeste 0 1018.8 -1.1 41
2018-01-16 17:00:00 20.1 28 Oeste 46 Oeste 0 1019.1 -2 36
2018-01-16 16:00:00 20.7 32 Oeste 41 Noroeste 0 1019.4 -2.8 34
2018-01-16 15:00:00 20.3 23 Oeste 37 Oeste 0 1019.9 -3.3 37
2018-01-16 14:00:00 19.3 22 Oeste 35 Oeste 0 1021.1 -2.8 36
2018-01-16 13:00:00 15.5 23 Sudoeste 35 Sudoeste 0 1022.2 -1.6 49
2018-01-16 12:00:00 12.8 24 Sudoeste 35 Sudoeste 0 1023.2 -0.3 54
2018-01-16 11:00:00 11.8 20 Sudoeste 30 Sudoeste 0 1023.9 0.5 56
2018-01-16 10:00:00 9.9 16 Sudoeste 39 Oeste 0 1023.8 0.7 59
2018-01-16 09:00:00 7.9 19 Oeste 30 Oeste 0 1023.5 0.6 66
2018-01-16 08:00:00 5.6 22 Sudoeste 32 Sudoeste 0 1023.4 -0.1 78
2018-01-16 07:00:00 7.9 17 Sudoeste 33 Oeste 0 1023.1 -0.4 65
2018-01-16 06:00:00 8.5 13 Sudoeste 24 Sudoeste 0 1022.9 -1.1 61
2018-01-16 05:00:00 6.5 19 Sudoeste 28 Oeste 0 1023.5 -0.8 71
2018-01-16 04:00:00 8.1 16 Sudoeste 22 Sudoeste 0 1023.5 -1.2 65
2018-01-16 03:00:00 5.7 14 Sudoeste 21 Oeste 0 1024 -1.2 79
2018-01-16 02:00:00 5.7 13 Sudoeste 21 Sudoeste 0 1024.3 -0.8 79
2018-01-16 01:00:00 5.7 10 Oeste 17 Oeste 0 1024.7 -0.1 80
2018-01-16 00:00:00 6.3 12 Oeste 17 Oeste 0 1025.2 0.8 80
2018-01-15 23:00:00 7.7 13 Oeste 18 Oeste 0 1025.1 1.4 77
2018-01-15 22:00:00 7.3 9 Noroeste 13 Oeste 0 1024.8 1.7 88
2018-01-15 21:00:00 8.5 6 Oeste 9 Oeste 0 1024.4 1.7 86
2018-01-15 20:00:00 9.8 9 Oeste 9 Oeste 0 1023.7 1.4 81
2018-01-15 19:00:00 10.2 4 Sudoeste 9 Sur 0 1023.1 1.3 81
2018-01-15 18:00:00 12.2 6 Sudeste 11 Sudeste 0 1022.7 1.1 72
2018-01-15 17:00:00 13.8 7 Sudeste 15 Sudeste 0 1022.3 0.7 61
2018-01-15 16:00:00 13.9 7 Este 15 Este 0 1021.8 0 58
2018-01-15 15:00:00 14.2 9 Nordeste 18 Este 0 1021.6 -1 59
2018-01-15 14:00:00 14.5 11 Este 24 Este 0 1021.6 -0.4 55
2018-01-15 13:00:00 14.2 5 Este 17 Nordeste 0 1021.8 0.9 54
2018-01-15 12:00:00 13.2 5 Nordeste 30 Norte 0 1022.6 2.6 57
2018-01-15 11:00:00 11.6 7 Norte 24 Norte 0 1022 2.8 74
2018-01-15 10:00:00 9.8 7 Oeste 11 Sudoeste 0 1020.9 2.4 84
2018-01-15 09:00:00 8.3 8 Sudoeste 17 Sudoeste 0.1 1020 1.9 92
2018-01-15 08:00:00 8.2 9 Sudoeste 17 Sudoeste 0.4 1019.2 1.4 93
2018-01-15 07:00:00 8.7 12 Oeste 18 Oeste 0 1018.5 0.6 87
2018-01-15 06:00:00 8.5 13 Oeste 17 Oeste 0 1018.1 0.3 93
2018-01-15 05:00:00 8.6 9 Noroeste 15 Noroeste 0 1017.8 0.4 92
2018-01-15 04:00:00 8.6 11 Noroeste 17 Noroeste 0 1017.9 0.5 93
2018-01-15 03:00:00 8.3 8 Oeste 11 Oeste 1.3 1017.8 1.2 96
2018-01-15 02:00:00 8.5 2 Sudoeste 8 Sudoeste 2.1 1017.4 1.5 94
2018-01-15 01:00:00 8.6 9 Sur 18 Sur 0.5 1017.4 1.9 91
2018-01-15 00:00:00 11 14 Sudoeste 28 Oeste 0 1016.6 1.4 59
2018-01-14 23:00:00 10.1 0 Calma 28 Norte 0 1015.9 1.1 60
2018-01-14 22:00:00 10.6 6 Norte 15 Noroeste 0 1015.5 1.1 56
2018-01-14 21:00:00 -- 8 Oeste 11 Oeste 0 1015.2 1.2 --
2018-01-14 20:00:00 11.7 9 Oeste 15 Sudoeste 0 1014.8 1.1 54
2018-01-14 19:00:00 11.8 9 Sudoeste 15 Sur 0 1014.4 1 52
2018-01-14 18:00:00 13.1 8 Sudoeste 11 Sudoeste 0 1014 0.7 46
2018-01-14 17:00:00 14.2 9 Sudoeste 18 Noroeste 0 1013.7 -0.4 42
2018-01-14 16:00:00 15 12 Oeste 28 Oeste 0 1013.4 -1.5 39
2018-01-14 15:00:00 15.2 10 Oeste 28 Noroeste 0 1013.3 -2.5 38
2018-01-14 14:00:00 14.4 12 Oeste 28 Noroeste 0 1014.1 -2.1 40
2018-01-14 13:00:00 14.3 18 Oeste 28 Oeste 0 1014.9 -1.1 41
2018-01-14 12:00:00 13.1 17 Sudoeste 28 Sudoeste 0 1015.8 0.1 50
2018-01-14 11:00:00 12.4 9 Sudoeste 15 Oeste 0 1016.2 1 50
2018-01-14 10:00:00 9.7 8 Oeste 13 Oeste 0 1016 1.3 61
2018-01-14 09:00:00 5 5 Sudoeste 13 Sudoeste 0 1015.7 1.1 79
2018-01-14 08:00:00 4.5 7 Oeste 11 Oeste 0 1015.2 0.7 78
2018-01-14 07:00:00 6.5 8 Este 33 Oeste 0 1014.7 0.2 69
2018-01-14 06:00:00 9.2 18 Oeste 28 Oeste 0 1014.6 0.2 59
2018-01-14 05:00:00 8.5 13 Sudoeste 17 Oeste 0 1014.5 0.3 65
2018-01-14 04:00:00 7.3 12 Oeste 18 Sudoeste 0 1014.5 -0.2 70
2018-01-14 03:00:00 5.9 2 Oeste 18 Oeste 0 1014.4 -0.6 79
2018-01-14 02:00:00 6.3 12 Oeste 18 Oeste 0 1014.2 -0.7 82
2018-01-14 01:00:00 7 13 Oeste 17 Oeste 0 1014.7 -0.2 84
2018-01-14 00:00:00 8.1 9 Oeste 13 Oeste 0 1015 0.1 84
2018-01-13 23:00:00 7.7 9 Noroeste 13 Oeste 0 1014.9 0 89
2018-01-13 22:00:00 9 9 Oeste 13 Oeste 0 1014.9 -0.3 83
2018-01-13 21:00:00 10.1 6 Oeste 11 Oeste 0 1014.9 -0.1 81
2018-01-13 20:00:00 10.8 6 Sur 9 Sur 0 1014.9 0.2 81
2018-01-13 19:00:00 10.8 0 Calma 5 Sudoeste 0 1015.2 0.5 79
2018-01-13 18:00:00 11.7 0 Calma 9 Sur 0 1015 0.7 74
2018-01-13 17:00:00 12.7 6 Sur 13 Sudeste 0 1014.7 -0.7 69
2018-01-13 16:00:00 13.6 8 Sur 17 Sudoeste 0 1014.7 -2.2 65
2018-01-13 15:00:00 13.8 8 Sur 17 Sudeste 0 1014.3 -3.4 61
2018-01-13 14:00:00 14.3 9 Sudoeste 18 Oeste 0 1015.4 -2.5 60
2018-01-13 13:00:00 14.4 10 Sudoeste 18 Oeste 0 1016.9 -0.9 60
2018-01-13 12:00:00 13.4 3 Sur 9 Sur 0 1017.7 0.1 51
2018-01-13 11:00:00 11.7 0 Calma 9 Norte 0 1017.9 0.1 52
2018-01-13 10:00:00 9.5 0 Calma 9 Sudoeste 0 1017.8 0.3 54
2018-01-13 09:00:00 6.1 0 Calma 11 Oeste 0 1017.6 0.2 65
2018-01-13 08:00:00 4.4 9 Sudoeste 15 Sur 0 1017.8 0.1 71
2018-01-13 07:00:00 6.3 0 Calma 11 Oeste 0 1017.5 -0.8 62
2018-01-13 06:00:00 5.7 9 Oeste 11 Sudoeste 0 1017.4 -0.9 65
2018-01-13 05:00:00 6.2 8 Noroeste 11 Oeste 0 1017.7 -1.4 62
2018-01-13 04:00:00 5.8 9 Oeste 11 Oeste 0 1018.3 -1.3 64
2018-01-13 03:00:00 6.9 8 Oeste 11 Sudoeste 0 1018.3 -1.9 60
2018-01-13 02:00:00 6.7 10 Oeste 15 Sudoeste 0 1019.1 -1.2 62
2018-01-13 01:00:00 9.3 9 Sur 15 Sur 0 1019.6 -0.5 53
2018-01-13 00:00:00 10.5 9 Sudoeste 22 Oeste 0 1020.2 0.4 49
2018-01-12 23:00:00 10.5 14 Sudoeste 30 Noroeste 0 1020.3 0.3 50
2018-01-12 22:00:00 11 22 Noroeste 30 Noroeste 0 1020.1 0.8 46
2018-01-12 21:00:00 9.7 14 Oeste 24 Noroeste 0 1019.8 0.8 48
2018-01-12 20:00:00 10 8 Sudoeste 13 Sudoeste 0 1020 1.1 49
2018-01-12 19:00:00 12.1 7 Sudoeste 17 Noroeste 0 1019.3 0.6 42
2018-01-12 18:00:00 14.4 4 Oeste 28 Oeste 0 1019 0 35
2018-01-12 17:00:00 16.2 7 Oeste 22 Oeste 0 1018.9 -0.8 30
2018-01-12 16:00:00 16.5 10 Oeste 24 Oeste 0 1018.7 -2.1 31
2018-01-12 15:00:00 16.2 12 Oeste 24 Oeste 0 1019 -2 30
2018-01-12 14:00:00 15.7 13 Sudoeste 24 Sudoeste 0 1019.7 -1.7 33
2018-01-12 13:00:00 14.8 12 Oeste 24 Oeste 0 1020.8 0.1 32
2018-01-12 12:00:00 14.2 8 Oeste 18 Noroeste 0 1021 0.9 35
2018-01-12 11:00:00 11.9 17 Noroeste 30 Noroeste 0 1021.4 1.6 43
2018-01-12 10:00:00 10.1 24 Noroeste 41 Noroeste 0 1020.7 1.1 48
2018-01-12 09:00:00 8.7 27 Noroeste 41 Noroeste 0 1020.1 1 52
2018-01-12 08:00:00 8.3 18 Oeste 30 Oeste 0 1019.8 0.5 54
2018-01-12 07:00:00 9.2 6 Noroeste 33 Noroeste 0 1019.6 -0.1 49
2018-01-12 06:00:00 9 22 Noroeste 42 Oeste 0 1019.1 -- 51
2018-01-12 05:00:00 9.2 10 Noroeste 30 Noroeste 0 1019.3 -0.3 49
2018-01-12 04:00:00 10.3 10 Oeste 33 Noroeste 0 1019.7 0.9 44
2018-01-12 03:00:00 10 14 Oeste 37 Oeste 0 -- -- 44
2018-01-12 02:00:00 10.4 15 Sudoeste 37 Oeste 0 1019.6 0.4 42
2018-01-12 01:00:00 10.7 28 Oeste 45 Oeste 0 1018.8 0.7 42
2018-01-12 00:00:00 10.4 23 Oeste 35 Oeste 0 1019.3 1.5 43
2018-01-11 23:00:00 11.1 23 Oeste 42 Oeste 0 1019.2 1.5 41
2018-01-11 22:00:00 11.7 37 Oeste 58 Oeste 0 1018.1 0.3 39
2018-01-11 21:00:00 12 41 Oeste 58 Oeste 0 1017.8 0.6 41
2018-01-11 20:00:00 11.9 40 Oeste 54 Oeste 0 1017.7 1.8 42
2018-01-11 19:00:00 12.3 28 Oeste 45 Oeste 0 1017.8 2.2 42
2018-01-11 18:00:00 13.3 16 Noroeste 50 Noroeste 0 1017.2 2.5 38
2018-01-11 17:00:00 14.2 33 Noroeste 59 Noroeste 0 1015.9 1.4 38
2018-01-11 16:00:00 14.1 44 Noroeste 76 Noroeste 0 1015.6 0.2 35
2018-01-11 15:00:00 15.1 48 Noroeste 76 Noroeste 0 1014.7 -1.7 32
2018-01-11 14:00:00 15 54 Oeste 78 Oeste 0 1014.5 -3.3 34
2018-01-11 13:00:00 14.5 51 Noroeste 78 Oeste 0 1015.4 -1.6 35
2018-01-11 12:00:00 14.1 53 Oeste 72 Oeste 0 1016.4 -0.6 41
2018-01-11 11:00:00 14 30 Noroeste 50 Oeste 0 1017.8 1.3 41
2018-01-11 10:00:00 12.2 12 Oeste 24 Oeste 0 1017 0.5 43
2018-01-11 09:00:00 10.3 9 Sur 18 Sudoeste 0 1017 0.7 50
2018-01-11 08:00:00 9.8 8 Sudoeste 32 Oeste 0 1016.5 0.5 53
2018-01-11 07:00:00 8.6 7 Noroeste 33 Noroeste 0 1016.5 0.2 61
2018-01-11 06:00:00 11.2 20 Noroeste 37 Noroeste 0 1016.3 -0.1 51
2018-01-11 05:00:00 10.7 13 Noroeste 30 Noroeste 0 1016 -0.2 55
2018-01-11 04:00:00 11.5 13 Noroeste 18 Noroeste 0 1016.3 0.2 55
2018-01-11 03:00:00 12.1 4 Sur 15 Oeste 0 1016.4 0.8 53
2018-01-11 02:00:00 12.7 10 Oeste 33 Oeste 0 1016.2 1.5 53
2018-01-11 01:00:00 13.7 28 Oeste 42 Oeste 0 1016.1 1 51
2018-01-11 00:00:00 11.1 5 Norte 15 Sur 0 1015.6 0.8 59
2018-01-10 23:00:00 9.3 12 Sur 17 Sur 0 1014.7 0 66
2018-01-10 22:00:00 9.5 0 Calma 13 Sudoeste 0 1015.1 0 66
2018-01-10 21:00:00 12.3 7 Sur 13 Sur 0 1014.8 0.2 54
2018-01-10 20:00:00 13.3 9 Oeste 15 Oeste 0 1014.7 0.5 51
2018-01-10 19:00:00 13.2 6 Sur 28 Oeste 0 1015.1 1.4 54
2018-01-10 18:00:00 16 17 Oeste 41 Oeste 0 1014.6 0.9 43
2018-01-10 17:00:00 17.4 23 Oeste 50 Oeste 0 1014.2 0.4 41
2018-01-10 16:00:00 17.8 29 Oeste 42 Noroeste 0 1013.7 -0.9 40
2018-01-10 15:00:00 17.3 29 Oeste 42 Noroeste 0 1013.7 -1.5 47
2018-01-10 14:00:00 15.3 13 Sudoeste 24 Sudoeste 0 1013.8 -1.8 65
2018-01-10 13:00:00 14.9 16 Sudoeste 26 Oeste 0 1014.6 -1 64
2018-01-10 12:00:00 13.1 19 Sudoeste 30 Sudoeste 0 1015.2 -0.2 69
2018-01-10 11:00:00 11.8 15 Sudoeste 24 Sudoeste 0 1015.6 0.6 72
2018-01-10 10:00:00 9.2 13 Sudoeste 18 Sudoeste 0 1015.6 1 92
2018-01-10 09:00:00 8.5 10 Sudoeste 15 Oeste 0 1015.4 0.6 93
2018-01-10 08:00:00 8.4 10 Oeste 13 Oeste 0 1015 0.2 92
2018-01-10 07:00:00 8.3 5 Oeste 15 Noroeste 0.1 1014.6 -0.7 92
2018-01-10 06:00:00 8.3 12 Noroeste 17 Noroeste 2.7 1014.8 -0.9 90
2018-01-10 05:00:00 8.5 12 Noroeste 17 Noroeste 0.3 1014.8 -1.3 87
2018-01-10 04:00:00 8.3 10 Noroeste 15 Noroeste 1.7 1015.3 -1.3 88
2018-01-10 03:00:00 8.3 9 Sudoeste 11 Oeste 0.3 1015.7 -1.1 82
2018-01-10 02:00:00 9.1 9 Sudoeste 11 Sudoeste 0 1016.1 -1.2 67
2018-01-10 01:00:00 9.2 5 Sudoeste 8 Sudoeste 0 1016.6 -0.6 64
2018-01-10 00:00:00 9 0 Calma 8 Norte 0 1016.8 -0.3 64
2018-01-09 23:00:00 8.7 0 Calma 9 Oeste 0 1017.3 0.2 64
2018-01-09 22:00:00 7.8 10 Oeste -- -- 0 1017.2 0.4 68
2018-01-09 21:00:00 8 7 Oeste 9 Oeste 0 1017.1 0.9 66
2018-01-09 20:00:00 -- -- -- -- -- 0 1017.1 1.4 --
2018-01-09 19:00:00 9.9 7 Sudoeste 8 Sudoeste 0 1016.8 -- 59
2018-01-09 18:00:00 11.1 5 Sudoeste 8 Sudoeste 0 1016.2 0.7 55
2018-01-09 17:00:00 13.5 4 Sudoeste 15 Sudoeste 0 1015.7 -0.2 46
2018-01-09 16:00:00 13.9 11 Sudoeste 24 Sudoeste 0 -- -- 44
2018-01-09 15:00:00 14.1 15 Sudoeste 26 Sudoeste 0 1015.5 -1.4 40
2018-01-09 14:00:00 13.9 13 Sudoeste 22 Sudoeste 0 1015.9 -- 44
2018-01-09 13:00:00 13.8 12 Sudoeste 18 Sudoeste 0 1016.2 0.1 44
2018-01-09 12:00:00 12.3 11 Sudoeste 22 Oeste 0 1016.9 1.3 49
2018-01-09 11:00:00 12.2 17 Oeste 26 Oeste 0 -- -- 45
2018-01-09 10:00:00 9.2 10 Sudoeste 15 Oeste 0 1016.1 1.9 58
2018-01-09 09:00:00 3.5 13 Oeste 18 Oeste 0 1015.6 2.3 79
2018-01-09 08:00:00 3 12 Sudoeste 18 Sudoeste 0 1014.8 1.7 80
2018-01-09 07:00:00 4.9 13 Sudoeste 18 Sudoeste 0 1014.2 1.1 70
2018-01-09 06:00:00 4.6 12 Sudoeste 17 Oeste 0 1013.3 0.8 72
2018-01-09 05:00:00 3.4 9 Oeste 13 Sudoeste 0 1013.1 1 77
2018-01-09 04:00:00 2.6 10 Sudoeste 17 Sur 0 1013.1 0.9 81
2018-01-09 03:00:00 5.1 13 Sur 17 Sur 0 1012.5 0.4 70
2018-01-09 02:00:00 5.9 7 Sudoeste 13 Noroeste 0 1012.1 0.4 68
2018-01-09 01:00:00 4.7 14 Oeste 17 Oeste 0 1012.2 1.2 73
2018-01-09 00:00:00 4.4 13 Oeste 15 Oeste 0 1012.1 1.5 78
2018-01-08 23:00:00 5.9 0 Calma 17 Oeste 0 1011.7 1.5 74
2018-01-08 22:00:00 6.6 0 Calma 9 Oeste 0 1011 1.4 74
2018-01-08 21:00:00 6.1 9 Oeste 11 Oeste 0 1010.6 1.7 77
2018-01-08 20:00:00 7.9 5 Oeste 8 Oeste 0 1010.2 2.1 71
2018-01-08 19:00:00 8.5 5 Sudoeste 9 Sudoeste 0 1009.6 1.8 70
2018-01-08 18:00:00 10.9 5 Sur 15 Sur 0 1008.9 1.4 63
2018-01-08 17:00:00 13.6 9 Sur 21 Sur 0 1008.1 0.4 42
2018-01-08 16:00:00 13.9 12 Sur 22 Sur 0 1007.8 0.3 34
2018-01-08 15:00:00 14 12 Sur 21 Sur 0 1007.5 -0.6 40
2018-01-08 14:00:00 13.8 10 Sudoeste 18 Sudoeste 0 1007.7 -0.2 47
2018-01-08 13:00:00 13.6 7 Sudoeste 18 Sudoeste 0 1007.5 0.1 48
2018-01-08 12:00:00 12.4 9 Sudoeste 17 Sudoeste 0 1008.1 1.2 52
2018-01-08 11:00:00 9.9 11 Sudoeste 15 Sudoeste 0 1007.9 1.6 62
2018-01-08 10:00:00 7.2 6 Sudoeste 11 Sudoeste 0 1007.4 1.7 73
2018-01-08 09:00:00 4.5 9 Sudoeste 15 Sur 0 1006.9 1.7 81
2018-01-08 08:00:00 5 4 Sudoeste 11 Sur 0 1006.3 1.7 79
2018-01-08 07:00:00 5.2 2 Noroeste 13 Noroeste 0 1005.7 1.3 78
2018-01-08 06:00:00 4.9 8 Oeste 13 Noroeste 0 1005.2 1.3 81
2018-01-08 05:00:00 5.1 9 Noroeste 9 Noroeste 0 1004.6 1 82
2018-01-08 04:00:00 5.1 5 Noroeste 11 Noroeste 0 1004.4 0.5 81
2018-01-08 03:00:00 5 9 Noroeste 9 Noroeste 0 1003.9 0 81
2018-01-08 02:00:00 5.7 6 Noroeste 9 Noroeste 0 1003.6 0.2 77
2018-01-08 01:00:00 6.3 5 Noroeste 11 Norte 0 1003.9 0.9 75
2018-01-08 00:00:00 7.5 8 Norte 11 Norte 0 1003.9 1.2 70
2018-01-07 23:00:00 6.8 8 Noroeste 9 Noroeste 0 1003.4 0.9 72
2018-01-07 22:00:00 8.4 0 Calma 13 Norte 0 1003 1.1 65
2018-01-07 21:00:00 8.6 6 Norte 9 Norte 0 1002.7 1.4 62
2018-01-07 20:00:00 10.1 0 Calma 5 Sudoeste 0 1002.5 1.7 59
2018-01-07 19:00:00 11.3 3 Noroeste 8 Norte 0 1001.9 2 57
2018-01-07 18:00:00 11.1 0 Calma 13 Sudeste 0 1001.3 2 60
2018-01-07 17:00:00 11.8 9 Sudeste 21 Sudeste 0 1000.8 1.4 54
2018-01-07 16:00:00 12.9 12 Sur 24 Sur 0 999.9 0.3 50
2018-01-07 15:00:00 13.9 9 Sur 18 Sudoeste 0 999.3 -0.8 41
2018-01-07 14:00:00 13.7 4 Sudoeste 13 Sudoeste 0 999.4 -0.3 40
2018-01-07 13:00:00 13.6 5 Sudeste 15 Sur 0 999.6 0.7 40
2018-01-07 12:00:00 11.7 5 Sudoeste 13 Oeste 0 1000.1 2.5 51
2018-01-07 11:00:00 10.1 10 Oeste 17 Oeste 0 999.7 2.7 61
2018-01-07 10:00:00 8.2 8 Sudoeste 11 Sudoeste 0 998.9 2.9 69
2018-01-07 09:00:00 3.6 6 Sudoeste 13 Oeste 0 997.6 1.7 88
2018-01-07 08:00:00 5.4 9 Oeste 28 Noroeste 0 997 1.1 80
2018-01-07 07:00:00 6.7 18 Noroeste 41 Oeste 0 996 -0.1 76
2018-01-07 06:00:00 7.1 17 Oeste 24 Oeste 0 995.9 0.2 75
2018-01-07 05:00:00 7.3 10 Oeste 21 Oeste 0 995.9 0.9 75
2018-01-07 04:00:00 7.2 13 Sudoeste 18 Sudoeste 0 996.1 0.4 71
2018-01-07 03:00:00 6.1 7 Oeste 13 Sudoeste 0 995.7 0.1 74
2018-01-07 02:00:00 6.4 12 Noroeste 15 Noroeste 0 995 0.4 73
2018-01-07 01:00:00 7.7 8 Oeste 17 Oeste 0 995.7 2.4 68
2018-01-07 00:00:00 8.3 15 Oeste 30 Oeste 0 995.6 2.7 65
2018-01-06 23:00:00 8.8 23 Oeste 50 Noroeste 0 994.6 2.2 63
2018-01-06 22:00:00 9.6 35 Noroeste 48 Noroeste 0 993.3 0.8 61
2018-01-06 21:00:00 10.3 29 Oeste 42 Oeste 0 992.9 0.7 68
2018-01-06 20:00:00 12.6 11 Sur 18 Sur 0 992.4 0.7 70
2018-01-06 19:00:00 12.4 13 Sur 28 Sur 0 992.5 0.5 67
2018-01-06 18:00:00 14 17 Sur 42 Sudeste 0 992.2 -0.1 61
2018-01-06 17:00:00 15.5 19 Sudeste 35 Este 0 991.7 -1.2 72
2018-01-06 16:00:00 15 19 Este 28 Este 0 992 -1.9 81
2018-01-06 15:00:00 14.7 14 Este 24 Este 0 992.3 -3.1 81
2018-01-06 14:00:00 14.8 15 Este 21 Este 0 992.9 -3.4 80
2018-01-06 13:00:00 15 9 Este 18 Este 0 993.9 -3 77
2018-01-06 12:00:00 15.6 4 Norte 18 Norte 0 995.4 -1.5 73
2018-01-06 11:00:00 13.8 11 Norte 18 Norte 0 996.3 -1.1 78
2018-01-06 10:00:00 12.5 12 Norte 18 Norte 0 996.9 -0.4 81
2018-01-06 09:00:00 11.9 12 Norte 15 Norte 0 996.9 -1.2 85
2018-01-06 08:00:00 11.5 3 Sudoeste 15 Nordeste 0 997.4 -1.7 87
2018-01-06 07:00:00 10.3 7 Norte 13 Norte 0 997.3 -2.9 90
2018-01-06 06:00:00 10.3 9 Norte 13 Norte 0 998.1 -2.8 89
2018-01-06 05:00:00 7.9 5 Noroeste 9 Noroeste 0 999.1 -3 85
2018-01-06 04:00:00 6.8 7 Noroeste 9 Noroeste 0 1000.2 -2.8 86
2018-01-06 03:00:00 7.4 0 Calma 8 Noroeste 0 1000.9 -2.9 79
2018-01-06 02:00:00 8.2 6 Oeste 13 Oeste 0 1002.1 -2.2 76
2018-01-06 01:00:00 8.6 8 Noroeste 11 Noroeste 0 1003 -1.9 75
2018-01-06 00:00:00 8.7 6 Noroeste 15 Oeste 0 1003.8 -1.4 81
2018-01-05 23:00:00 9.2 0 Calma 11 Norte 0 1004.3 -1.4 91
2018-01-05 22:00:00 10.7 3 Sudeste 11 Norte 0 1004.9 -1 89
2018-01-05 21:00:00 10.8 5 Norte 13 Norte 0 1005.2 -0.6 90
2018-01-05 20:00:00 12.2 9 Oeste 15 Sudoeste 0 1005.7 -0.4 91
2018-01-05 19:00:00 13.5 12 Sudoeste 22 Sudoeste 0 1005.9 -0.5 87
2018-01-05 18:00:00 14.5 14 Sur 28 Sur 0 1005.8 -1.1 79
2018-01-05 17:00:00 16.5 17 Sur 32 Sur 0 1006.1 -1.9 72
2018-01-05 16:00:00 18.8 18 Sur 30 Sur 0 1006.4 -2.9 53
2018-01-05 15:00:00 20.6 13 Sur 24 Sur 0 1006.9 -4 35
2018-01-05 14:00:00 19.6 14 Sudoeste 22 Sur 0 1008 -3.8 39
2018-01-05 13:00:00 19.8 15 Sudoeste 35 Noroeste 0 1009.3 -2.7 37
2018-01-05 12:00:00 18.5 25 Oeste 41 Noroeste 0 1010.9 -1 39
2018-01-05 11:00:00 17.2 24 Oeste 39 Oeste 0 1011.8 -0.4 44
2018-01-05 10:00:00 16.3 21 Oeste 33 Oeste 0 1012 -0.4 47
2018-01-05 09:00:00 14.5 23 Oeste 32 Oeste 0 1011.9 -0.2 53
2018-01-05 08:00:00 13.8 17 Oeste 33 Oeste 0 1012.2 0.1 56
2018-01-05 07:00:00 14.7 18 Oeste 59 Noroeste 0 1012.4 -1.1 55
2018-01-05 06:00:00 15.2 37 Noroeste 68 Noroeste 0 1012.1 -2.6 53
2018-01-05 05:00:00 15.4 51 Noroeste 74 Noroeste 0 1012.1 -2.4 54
2018-01-05 04:00:00 15.3 35 Noroeste 59 Noroeste 0 1013.5 -1.9 55
2018-01-05 03:00:00 15.2 29 Oeste 55 Noroeste 0 1014.7 -2 56
2018-01-05 02:00:00 15.7 34 Oeste 59 Noroeste 0 1014.5 -2.3 55
2018-01-05 01:00:00 16 38 Oeste 63 Noroeste 0 1015.4 -1.7 55
2018-01-05 00:00:00 16.6 35 Oeste 58 Noroeste 0 1016.7 -0.3 57
2018-01-04 23:00:00 16.7 39 Noroeste 55 Noroeste 0 1016.8 -0.2 57
2018-01-04 22:00:00 17 41 Noroeste 58 Noroeste 0 1017.1 0.3 57
2018-01-04 21:00:00 17.3 30 Oeste 48 Noroeste 0 1017 -0.2 57
2018-01-04 20:00:00 17.7 33 Noroeste 55 Noroeste 0 1017 -- 55
2018-01-04 19:00:00 18.2 41 Noroeste 54 Noroeste 0 1016.8 -0.9 54
2018-01-04 18:00:00 19.5 30 Noroeste 46 Noroeste 0 1017.2 -0.7 50
2018-01-04 17:00:00 21.6 28 Noroeste 42 Noroeste 0 -- -- 42
2018-01-04 16:00:00 22.7 29 Noroeste 42 Oeste 0 1017.7 -2.5 39
2018-01-04 15:00:00 22.8 27 Oeste 39 Oeste 0 1017.9 -3.2 38
2018-01-04 14:00:00 23.1 26 Oeste 39 Noroeste 0 1018.7 -2.7 39
2018-01-04 13:00:00 21.8 25 Noroeste 39 Oeste 0 1020.2 -1.5 43
2018-01-04 12:00:00 19.9 30 Oeste 52 Oeste 0 1021.1 -0.3 50
2018-01-04 11:00:00 18.3 39 Oeste 54 Oeste 0 1021.4 0.2 55
2018-01-04 10:00:00 17.1 31 Oeste 61 Oeste 0 1021.7 0.2 59
2018-01-04 09:00:00 15.9 34 Oeste 50 Oeste 0 1021.4 0.3 64
2018-01-04 08:00:00 15.5 19 Noroeste 37 Oeste 0 1021.2 -0.4 66
2018-01-04 07:00:00 15.8 17 Oeste 54 Noroeste 0 1021.5 -0.7 66
2018-01-04 06:00:00 15.6 28 Oeste 58 Noroeste 0 1021.1 -1.4 67
2018-01-04 05:00:00 15.6 23 Oeste 41 Oeste 0 1021.6 -1.1 66
2018-01-04 04:00:00 15.7 22 Oeste 45 Oeste 0 1022.2 -1 66
2018-01-04 03:00:00 16.1 32 Oeste 48 Oeste 0 1022.5 -1.7 64
2018-01-04 02:00:00 16.5 35 Oeste 50 Oeste 0 1022.7 -1.4 62
2018-01-04 01:00:00 16.5 30 Oeste 42 Oeste 0 1023.2 -0.6 61
2018-01-04 00:00:00 16.6 23 Oeste 42 Noroeste 0 1024.2 1.5 61
2018-01-03 23:00:00 16.6 15 Sudoeste 42 Noroeste 0 1024.1 1 61
2018-01-03 22:00:00 17 23 Oeste 58 Noroeste 0 1023.8 0.9 60
2018-01-03 21:00:00 17 49 Noroeste 78 Noroeste 0 1022.7 -0.3 59
2018-01-03 20:00:00 17.2 34 Noroeste 55 Oeste 0 1023.1 0.5 59
2018-01-03 19:00:00 18.6 37 Noroeste 46 Noroeste 0 1022.9 0 53
2018-01-03 18:00:00 19.1 16 Oeste 48 Oeste 0 1023 0 51
2018-01-03 17:00:00 20.2 30 Oeste 61 Noroeste 0 1022.6 -0.8 48
2018-01-03 16:00:00 21.1 32 Noroeste 52 Oeste 0 1022.9 -1.8 44
2018-01-03 15:00:00 22 30 Oeste 52 Oeste 0 1023 -2.9 41
2018-01-03 14:00:00 22.3 40 Oeste 55 Oeste 0 1023.4 -2.9 40
2018-01-03 13:00:00 21.7 30 Oeste 48 Oeste 0 1024.7 -1.4 42
2018-01-03 12:00:00 19.5 36 Oeste 46 Oeste 0 1025.9 0.8 48
2018-01-03 11:00:00 18 29 Noroeste 55 Noroeste 0 1026.3 1.3 54
2018-01-03 10:00:00 16.1 39 Oeste 55 Oeste 0 1026.1 1.6 59
2018-01-03 09:00:00 15.2 37 Noroeste 50 Noroeste 0 1025.1 0.8 62
2018-01-03 08:00:00 14.3 26 Oeste 48 Oeste 0 1025 0.4 64
2018-01-03 07:00:00 14.2 33 Oeste 50 Noroeste 0 1024.5 0.5 65
2018-01-03 06:00:00 14.3 37 Oeste 48 Oeste 0 1024.3 0 64
2018-01-03 05:00:00 14.2 28 Oeste 54 Oeste 0 1024.6 -0.1 64
2018-01-03 04:00:00 14.4 33 Noroeste 50 Noroeste 0 1024 -0.5 61
2018-01-03 03:00:00 15.4 36 Noroeste 52 Oeste 0 1024.3 -0.4 57
2018-01-03 02:00:00 15.7 17 Oeste 50 Noroeste 0 1024.7 0.1 55
2018-01-03 01:00:00 15.7 32 Noroeste 61 Oeste 0 1024.5 -0.2 52
2018-01-03 00:00:00 16 45 Noroeste 65 Oeste 0 1024.7 0.4 49
2018-01-02 23:00:00 16.7 41 Noroeste 61 Noroeste 0 1024.6 0 44
2018-01-02 22:00:00 16.8 30 Noroeste 46 Noroeste 0 1024.7 -0.1 47
2018-01-02 21:00:00 16.7 28 Oeste 48 Oeste 0 1024.3 0.7 47
2018-01-02 20:00:00 16.9 17 Oeste 41 Oeste 0 1024.6 1.1 46
2018-01-02 19:00:00 17.7 27 Noroeste 55 Noroeste 0 1024.8 1.6 41
2018-01-02 18:00:00 18.7 42 Noroeste 54 Noroeste 0 1023.6 -0.4 39
2018-01-02 17:00:00 19.6 32 Noroeste 52 Oeste 0 1023.5 -1.3 35
2018-01-02 16:00:00 19.7 36 Noroeste 48 Noroeste 0 1023.2 -1.9 34
2018-01-02 15:00:00 19.2 38 Noroeste 50 Noroeste 0 1024 -1.8 36
2018-01-02 14:00:00 18.9 9 Oeste 67 Noroeste 0 1024.8 -1.8 36
2018-01-02 13:00:00 17.8 41 Noroeste 67 Noroeste 0 1025.1 -2 39
2018-01-02 12:00:00 17.4 46 Noroeste 72 Noroeste 0 1025.8 -0.5 40
2018-01-02 11:00:00 15.8 42 Oeste 63 Noroeste 0 1026.6 0.5 44
2018-01-02 10:00:00 14.9 14 Oeste 41 Oeste 0 1027.1 1.3 47
2018-01-02 09:00:00 13.8 17 Oeste 72 Oeste 0 1026.3 0.7 52
2018-01-02 08:00:00 13.4 39 Oeste 71 Oeste 0 1026.1 -0.2 55
2018-01-02 07:00:00 13 16 Oeste 58 Noroeste 0 1025.8 -1.1 58
2018-01-02 06:00:00 13.4 26 Noroeste 50 Noroeste 0 1025.6 -1.3 58
2018-01-02 05:00:00 13 8 Sur 33 Noroeste 0 1026.3 -0.4 59
2018-01-02 04:00:00 13.6 4 Sur 21 Sudeste 0 1026.9 0 56
2018-01-02 03:00:00 12 4 Sudeste 17 Oeste 0 1026.9 0.1 51
2018-01-02 02:00:00 11.9 5 Oeste 17 Sudoeste 0 1026.7 0.3 51
2018-01-02 01:00:00 13.3 5 Sudoeste 24 Oeste 0 1026.9 1 48
2018-01-02 00:00:00 14.2 29 Oeste 48 Oeste 0 1026.8 0.4 42
2018-01-01 23:00:00 15 20 Oeste 30 Oeste 0 1026.4 0.6 32
2018-01-01 22:00:00 15 24 Oeste 39 Noroeste 0 1025.9 1 30
2018-01-01 21:00:00 15.3 16 Noroeste 33 Oeste 0 1026.4 2.2 26
2018-01-01 20:00:00 12.7 11 Oeste 21 Sudoeste 0 1025.8 1.2 48
2018-01-01 19:00:00 14.2 10 Sudoeste 28 Sudoeste 0 1024.9 0.2 51
2018-01-01 18:00:00 16.7 20 Sudoeste 30 Sudoeste 0 1024.2 -1.5 41
2018-01-01 17:00:00 19.2 19 Sudoeste 33 Sudoeste 0 1024.6 -1.8 22
2018-01-01 16:00:00 20.1 22 Sudoeste 33 Sudoeste 0 1024.7 -3.1 19
2018-01-01 15:00:00 19.3 21 Sudoeste 33 Oeste 0 1025.7 -2.7 24
2018-01-01 14:00:00 19.3 17 Oeste 37 Oeste 0 1026.4 -3 23
2018-01-01 13:00:00 17.9 23 Noroeste 41 Oeste 0 1027.8 -0.8 28
2018-01-01 12:00:00 16.9 23 Oeste 32 Oeste 0 1028.4 0 27
2018-01-01 11:00:00 15.4 18 Oeste 35 Oeste 0 1029.4 1.3 32
2018-01-01 10:00:00 12.8 27 Oeste 35 Oeste 0 1028.6 1.2 45
2018-01-01 09:00:00 11.3 22 Oeste 46 Oeste 0 1028.4 0.5 46
2018-01-01 08:00:00 12.2 28 Oeste 74 Noroeste 0 1028.1 1.3 38
2018-01-01 07:00:00 12.2 29 Oeste 61 Oeste 0 1027.4 1.7 39
2018-01-01 06:00:00 12.2 15 Sur 24 Sur 0 1027.9 2.2 38
2018-01-01 05:00:00 12.8 14 Oeste 68 Noroeste 0 1026.8 1.2 38
2018-01-01 04:00:00 13.2 53 Noroeste 76 Noroeste 0 1025.7 0.9 40
2018-01-01 03:00:00 13.8 37 Oeste 67 Noroeste 0 1025.7 1.9 42
2018-01-01 02:00:00 14.5 23 Oeste 48 Oeste 0 1025.6 3.8 42
2018-01-01 01:00:00 15.5 17 Noroeste 50 Oeste 0 1024.8 4 44
2018-01-01 00:00:00 17.3 37 Noroeste 55 Noroeste 0 1023.8 3.9 45
2017-12-31 23:00:00 17.7 22 Oeste 35 Oeste 0 1021.8 3.1 47
2017-12-31 22:00:00 17.4 12 Oeste 24 Sudoeste 0 1020.8 3 46
2017-12-31 21:00:00 17.3 9 Sudoeste 33 Oeste 0 1019.9 2.6 45
2017-12-31 20:00:00 17.4 17 Oeste 39 Noroeste 0 1018.7 1.8 46
2017-12-31 19:00:00 17.9 22 Oeste 33 Oeste 0 1017.8 0.9 47
2017-12-31 18:00:00 17.8 19 Oeste 32 Noroeste 0 1017.3 0.5 48
2017-12-31 17:00:00 16.8 12 Sudoeste 21 Oeste 0 1016.9 -0.6 53
2017-12-31 16:00:00 16.7 12 Sudoeste 21 Sudoeste 0 1016.9 -1.6 55
2017-12-31 15:00:00 17.1 14 Sudoeste 24 Sudoeste 0 1016.8 -2.7 52
2017-12-31 14:00:00 16.1 13 Sudoeste 28 Sudoeste 0 1017.5 -2.4 58
2017-12-31 13:00:00 16.1 18 Sudoeste 26 Sudoeste 0 1018.5 -1.6 57
2017-12-31 12:00:00 15.9 15 Sudoeste 24 Sudoeste 0 1019.5 -0.4 57
2017-12-31 11:00:00 14 11 Sudoeste 18 Sudoeste 0 1019.9 0 62
2017-12-31 10:00:00 12.1 7 Sudoeste 15 Sudoeste 0 1020.1 0.3 71
2017-12-31 09:00:00 9.2 10 Sudoeste 13 Sudoeste 0 1019.9 0 80
2017-12-31 08:00:00 8.4 9 Oeste 11 Sudoeste 0 1019.9 -0.2 82
2017-12-31 07:00:00 8.3 9 Sudoeste 9 Sudoeste 0 1019.8 -0.6 83
2017-12-31 06:00:00 9.8 4 Sur 13 Oeste 0 1019.9 -0.6 78
2017-12-31 05:00:00 10.9 10 Sudoeste 13 Sudoeste 0 1020.1 -0.7 72
2017-12-31 04:00:00 10.1 9 Sudoeste 15 Sudoeste 0 1020.4 -0.8 77
2017-12-31 03:00:00 13 0 Calma 17 Noroeste 0 1020.5 -0.9 65
2017-12-31 02:00:00 14.6 13 Oeste 21 Noroeste 0 1020.8 -0.6 59
2017-12-31 01:00:00 15.1 8 Oeste 22 Oeste 0 1021.2 -0.1 60